createdAt,value
2017-07-27T00:00:13.584Z,15.40
2017-07-27T00:02:41.450Z,15.40
2017-07-27T00:05:09.008Z,15.50
2017-07-27T00:07:36.583Z,15.40
2017-07-27T00:15:49.654Z,15.40
2017-07-27T00:18:17.213Z,15.50
2017-07-27T00:20:44.763Z,15.50
2017-07-27T00:23:12.649Z,15.60
2017-07-27T00:25:40.240Z,15.60
2017-07-27T00:28:07.801Z,15.60
2017-07-27T00:30:35.491Z,15.60
2017-07-27T00:33:03.059Z,15.50
2017-07-27T00:35:30.623Z,15.50
2017-07-27T00:37:58.343Z,15.60
2017-07-27T00:40:25.900Z,15.60
2017-07-27T00:42:53.463Z,15.60
2017-07-27T00:45:21.283Z,15.60
2017-07-27T00:47:48.831Z,15.70
2017-07-27T00:50:16.387Z,15.70
2017-07-27T00:52:44.062Z,15.60
2017-07-27T00:55:11.604Z,15.50
2017-07-27T00:57:39.161Z,15.50
2017-07-27T01:00:06.762Z,15.50
2017-07-27T01:02:34.325Z,15.40
2017-07-27T01:05:01.899Z,15.40
2017-07-27T01:07:29.599Z,15.30
2017-07-27T01:09:57.157Z,15.30
2017-07-27T01:12:24.740Z,15.20
2017-07-27T01:14:52.530Z,15.00
2017-07-27T01:17:20.083Z,15.00
2017-07-27T01:19:47.658Z,15.00
2017-07-27T01:22:15.266Z,15.00
2017-07-27T01:24:42.816Z,15.10
2017-07-27T01:27:10.376Z,15.00
2017-07-27T01:29:38.110Z,15.10
2017-07-27T01:32:05.670Z,15.10
2017-07-27T01:34:33.219Z,15.10
2017-07-27T01:37:00.832Z,15.20
2017-07-27T01:39:28.385Z,15.20
2017-07-27T01:41:55.945Z,15.20
2017-07-27T01:44:23.619Z,15.20
2017-07-27T01:46:51.186Z,15.20
2017-07-27T01:49:18.760Z,15.30
2017-07-27T01:51:46.458Z,15.30
2017-07-27T01:54:14.018Z,15.30
2017-07-27T01:56:41.578Z,15.40
2017-07-27T01:59:09.482Z,15.50
2017-07-27T02:01:37.075Z,15.60
2017-07-27T02:04:04.629Z,15.60
2017-07-27T02:06:32.234Z,15.70
2017-07-27T02:08:59.794Z,15.70
2017-07-27T02:11:27.354Z,15.70
2017-07-27T02:13:55.111Z,15.80
2017-07-27T02:16:22.679Z,15.80
2017-07-27T02:18:50.251Z,15.70
2017-07-27T02:21:17.979Z,15.70
2017-07-27T02:23:45.543Z,15.80
2017-07-27T02:26:13.106Z,15.80
2017-07-27T02:28:40.836Z,15.90
2017-07-27T02:31:08.391Z,15.90
2017-07-27T02:33:35.951Z,15.90
2017-07-27T02:36:03.651Z,16.00
2017-07-27T02:38:31.194Z,16.00
2017-07-27T02:40:58.750Z,15.90
2017-07-27T02:43:26.343Z,15.80
2017-07-27T02:45:53.900Z,15.90
2017-07-27T02:48:21.450Z,16.00
2017-07-27T02:50:49.178Z,16.00
2017-07-27T02:53:16.732Z,16.00
2017-07-27T02:55:44.274Z,16.00
2017-07-27T02:58:12.014Z,16.10
2017-07-27T03:00:39.579Z,16.10
2017-07-27T03:03:07.132Z,16.20
2017-07-27T03:05:34.734Z,16.20
2017-07-27T03:08:02.293Z,16.20
2017-07-27T03:10:29.834Z,16.20
2017-07-27T03:12:57.570Z,16.20
2017-07-27T03:15:25.127Z,16.20
2017-07-27T03:17:52.683Z,16.30
2017-07-27T03:20:20.527Z,16.30
2017-07-27T03:22:48.078Z,16.30
2017-07-27T03:25:15.627Z,16.30
2017-07-27T03:27:43.367Z,16.30
2017-07-27T03:30:10.920Z,16.30
2017-07-27T03:32:38.486Z,16.30
2017-07-27T03:35:06.359Z,16.30
2017-07-27T03:37:33.919Z,16.40
2017-07-27T03:40:01.477Z,16.40
2017-07-27T03:42:29.220Z,16.40
2017-07-27T03:44:56.796Z,16.40
2017-07-27T03:47:24.368Z,16.40
2017-07-27T03:49:52.041Z,16.50
2017-07-27T03:52:19.598Z,16.40
2017-07-27T03:54:47.180Z,16.40
2017-07-27T03:57:14.782Z,16.40
2017-07-27T03:59:42.330Z,16.50
2017-07-27T04:02:09.888Z,16.50
2017-07-27T04:04:37.750Z,16.50
2017-07-27T04:07:05.313Z,16.50
2017-07-27T04:09:32.859Z,16.60
2017-07-27T04:12:00.612Z,16.50
2017-07-27T04:14:28.170Z,16.60
2017-07-27T04:16:55.726Z,16.60
2017-07-27T04:19:23.313Z,16.70
2017-07-27T04:21:50.870Z,16.80
2017-07-27T04:24:18.428Z,16.80
2017-07-27T04:26:46.022Z,16.90
2017-07-27T04:29:14.783Z,16.90
2017-07-27T04:31:42.355Z,16.90
2017-07-27T04:34:10.089Z,17.00
2017-07-27T04:36:37.659Z,17.00
2017-07-27T04:39:05.232Z,17.00
2017-07-27T04:41:32.978Z,16.90
2017-07-27T04:44:00.549Z,17.00
2017-07-27T04:46:28.116Z,17.00
2017-07-27T04:48:55.799Z,17.10
2017-07-27T04:51:23.360Z,17.20
2017-07-27T04:53:50.914Z,17.30
2017-07-27T04:56:18.506Z,17.50
2017-07-27T04:58:46.087Z,17.60
2017-07-27T05:01:13.669Z,17.60
2017-07-27T05:03:41.267Z,17.70
2017-07-27T05:06:08.821Z,17.70
2017-07-27T05:08:36.395Z,17.80
2017-07-27T05:11:03.995Z,17.80
2017-07-27T05:13:31.569Z,17.90
2017-07-27T05:15:59.143Z,17.90
2017-07-27T05:18:26.962Z,17.90
2017-07-27T05:20:54.522Z,17.90
2017-07-27T05:23:22.091Z,18.00
2017-07-27T05:25:49.718Z,18.10
2017-07-27T05:28:17.267Z,18.10
2017-07-27T05:30:44.836Z,18.10
2017-07-27T05:33:12.433Z,18.10
2017-07-27T05:35:40.014Z,18.20
2017-07-27T05:38:07.575Z,18.20
2017-07-27T05:40:35.319Z,18.30
2017-07-27T05:43:02.886Z,18.30
2017-07-27T05:45:30.459Z,18.40
2017-07-27T05:47:58.183Z,18.40
2017-07-27T05:50:25.760Z,18.40
2017-07-27T05:52:53.324Z,18.40
2017-07-27T05:55:21.075Z,18.40
2017-07-27T05:57:48.632Z,18.50
2017-07-27T06:00:16.195Z,18.60
2017-07-27T06:02:43.947Z,18.60
2017-07-27T06:05:11.512Z,18.80
2017-07-27T06:07:39.081Z,18.80
2017-07-27T06:10:06.813Z,18.90
2017-07-27T06:12:35.869Z,19.00
2017-07-27T06:15:03.427Z,19.10
2017-07-27T06:17:31.014Z,19.20
2017-07-27T06:19:58.596Z,19.30
2017-07-27T06:22:26.318Z,19.30
2017-07-27T06:24:54.251Z,19.40
2017-07-27T06:27:21.801Z,19.40
2017-07-27T06:29:49.379Z,19.40
2017-07-27T06:32:16.971Z,19.50
2017-07-27T06:34:44.544Z,19.60
2017-07-27T06:37:12.109Z,19.70
2017-07-27T06:39:39.700Z,19.70
2017-07-27T06:42:07.251Z,19.70
2017-07-27T06:44:34.807Z,19.70
2017-07-27T06:47:02.413Z,19.70
2017-07-27T06:49:29.972Z,19.50
2017-07-27T06:51:57.531Z,19.50
2017-07-27T06:54:25.408Z,19.60
2017-07-27T06:56:52.960Z,19.60
2017-07-27T06:59:20.516Z,19.50
2017-07-27T07:01:48.355Z,19.50
2017-07-27T07:04:15.906Z,19.50
2017-07-27T07:06:43.459Z,19.50
2017-07-27T07:09:11.146Z,19.40
2017-07-27T07:11:38.719Z,19.50
2017-07-27T07:14:06.265Z,19.50
2017-07-27T07:16:34.023Z,19.60
2017-07-27T07:19:01.575Z,19.60
2017-07-27T07:21:29.124Z,19.70
2017-07-27T07:23:57.007Z,19.70
2017-07-27T07:26:24.551Z,19.70
2017-07-27T07:28:52.097Z,19.70
2017-07-27T07:31:19.700Z,19.70
2017-07-27T07:33:47.264Z,19.70
2017-07-27T07:36:14.812Z,19.60
2017-07-27T07:38:42.493Z,19.60
2017-07-27T07:41:10.051Z,19.60
2017-07-27T07:43:37.611Z,19.60
2017-07-27T07:46:05.192Z,19.70
2017-07-27T07:48:32.744Z,19.90
2017-07-27T07:51:00.292Z,20.00
2017-07-27T07:53:27.920Z,20.10
2017-07-27T07:55:55.476Z,20.20
2017-07-27T07:58:23.017Z,20.30
2017-07-27T08:00:50.602Z,20.30
2017-07-27T08:03:18.155Z,20.30
2017-07-27T08:05:45.705Z,20.40
2017-07-27T08:08:13.388Z,20.40
2017-07-27T08:10:40.944Z,20.30
2017-07-27T08:13:08.491Z,20.20
2017-07-27T08:15:36.206Z,20.20
2017-07-27T08:18:03.760Z,20.30
2017-07-27T08:20:31.309Z,20.40
2017-07-27T08:22:58.937Z,20.50
2017-07-27T08:25:26.495Z,20.50
2017-07-27T08:27:54.042Z,20.50
2017-07-27T08:30:22.500Z,20.50
2017-07-27T08:32:50.067Z,20.60
2017-07-27T08:35:17.615Z,20.70
2017-07-27T08:37:45.305Z,20.70
2017-07-27T08:40:12.859Z,20.90
2017-07-27T08:42:40.413Z,21.10
2017-07-27T08:45:08.151Z,21.40
2017-07-27T08:47:35.703Z,21.60
2017-07-27T08:50:03.334Z,21.90
2017-07-27T08:52:30.971Z,22.10
2017-07-27T08:54:58.525Z,22.10
2017-07-27T08:57:26.081Z,21.90
2017-07-27T08:59:53.793Z,21.90
2017-07-27T09:02:21.370Z,21.90
2017-07-27T09:04:48.931Z,21.90
2017-07-27T09:07:16.545Z,21.80
2017-07-27T09:09:44.102Z,21.60
2017-07-27T09:12:11.655Z,21.40
2017-07-27T09:14:39.549Z,21.30
2017-07-27T09:17:07.110Z,21.20
2017-07-27T09:19:34.664Z,21.20
2017-07-27T09:22:02.281Z,21.10
2017-07-27T09:24:29.849Z,21.10
2017-07-27T09:26:57.407Z,21.10
2017-07-27T09:29:24.990Z,21.00
2017-07-27T09:31:52.543Z,20.90
2017-07-27T09:34:20.098Z,20.90
2017-07-27T09:36:47.692Z,21.00
2017-07-27T09:39:15.243Z,21.10
2017-07-27T09:41:42.803Z,21.20
2017-07-27T09:44:10.618Z,21.30
2017-07-27T09:46:38.178Z,21.60
2017-07-27T09:49:05.730Z,21.90
2017-07-27T09:51:33.624Z,22.00
2017-07-27T09:54:01.183Z,22.20
2017-07-27T09:56:28.747Z,22.40
2017-07-27T09:58:56.586Z,22.50
2017-07-27T10:01:24.138Z,22.70
2017-07-27T10:03:51.694Z,22.90
2017-07-27T10:06:19.300Z,23.00
2017-07-27T10:08:46.847Z,23.10
2017-07-27T10:11:14.403Z,23.10
2017-07-27T10:13:42.148Z,23.20
2017-07-27T10:16:09.715Z,23.30
2017-07-27T10:18:37.272Z,23.20
2017-07-27T10:21:04.963Z,23.20
2017-07-27T10:23:32.524Z,23.10
2017-07-27T10:26:00.080Z,23.10
2017-07-27T10:28:27.759Z,23.10
2017-07-27T10:30:55.323Z,23.10
2017-07-27T10:33:23.059Z,22.90
2017-07-27T10:35:50.806Z,22.80
2017-07-27T10:38:18.361Z,22.90
2017-07-27T10:40:45.916Z,22.90
2017-07-27T10:43:13.642Z,23.00
2017-07-27T10:45:41.190Z,23.10
2017-07-27T10:48:08.735Z,23.10
2017-07-27T10:50:36.354Z,23.20
2017-07-27T10:53:03.903Z,23.20
2017-07-27T10:55:31.443Z,23.30
2017-07-27T10:57:59.170Z,23.20
2017-07-27T11:00:26.713Z,23.20
2017-07-27T11:02:54.272Z,23.10
2017-07-27T11:05:22.003Z,23.10
2017-07-27T11:07:49.577Z,23.20
2017-07-27T11:10:17.222Z,23.30
2017-07-27T11:12:45.013Z,23.30
2017-07-27T11:15:12.668Z,23.50
2017-07-27T11:17:40.324Z,23.80
2017-07-27T11:20:07.943Z,23.80
2017-07-27T11:22:35.482Z,24.00
2017-07-27T11:25:03.070Z,24.00
2017-07-27T11:27:30.658Z,24.10
2017-07-27T11:30:00.185Z,24.00
2017-07-27T11:32:27.722Z,24.10
2017-07-27T11:34:55.414Z,24.20
2017-07-27T11:37:22.983Z,24.20
2017-07-27T11:39:50.534Z,24.30
2017-07-27T11:42:18.278Z,24.30
2017-07-27T11:44:45.842Z,24.30
2017-07-27T11:47:13.388Z,24.20
2017-07-27T11:49:40.971Z,24.10
2017-07-27T11:52:08.535Z,23.90
2017-07-27T11:54:36.081Z,23.60
2017-07-27T11:57:03.887Z,23.40
2017-07-27T11:59:31.486Z,23.30
2017-07-27T12:01:59.038Z,23.10
2017-07-27T12:04:26.784Z,22.90
2017-07-27T12:06:54.326Z,22.80
2017-07-27T12:09:21.890Z,22.80
2017-07-27T12:11:49.638Z,22.90
2017-07-27T12:14:17.190Z,23.10
2017-07-27T12:16:44.744Z,23.10
2017-07-27T12:19:12.462Z,23.30
2017-07-27T12:21:40.016Z,23.30
2017-07-27T12:24:07.561Z,23.50
2017-07-27T12:26:35.392Z,23.60
2017-07-27T12:29:02.948Z,23.70
2017-07-27T12:31:30.495Z,23.80
2017-07-27T12:33:58.220Z,23.70
2017-07-27T12:36:25.773Z,23.70
2017-07-27T12:38:53.316Z,23.80
2017-07-27T12:41:21.014Z,23.90
2017-07-27T12:43:48.572Z,23.90
2017-07-27T12:46:16.151Z,24.00
2017-07-27T12:48:43.819Z,24.00
2017-07-27T12:51:11.367Z,24.00
2017-07-27T12:53:38.899Z,23.90
2017-07-27T12:56:06.478Z,23.80
2017-07-27T12:58:34.015Z,23.90
2017-07-27T13:01:01.561Z,24.00
2017-07-27T13:03:29.151Z,24.10
2017-07-27T13:05:56.691Z,24.20
2017-07-27T13:08:24.240Z,24.20
2017-07-27T13:10:52.115Z,24.10
2017-07-27T13:13:19.872Z,24.10
2017-07-27T13:15:47.403Z,24.10
2017-07-27T13:18:15.104Z,23.90
2017-07-27T13:20:43.878Z,23.80
2017-07-27T13:23:11.439Z,23.60
2017-07-27T13:25:39.307Z,23.40
2017-07-27T13:28:06.848Z,23.10
2017-07-27T13:30:34.390Z,22.80
2017-07-27T13:33:02.111Z,22.70
2017-07-27T13:35:29.656Z,22.70
2017-07-27T13:37:57.191Z,22.80
2017-07-27T13:40:24.898Z,22.80
2017-07-27T13:42:52.446Z,22.90
2017-07-27T13:45:19.987Z,23.00
2017-07-27T13:47:47.743Z,23.10
2017-07-27T13:50:15.290Z,23.10
2017-07-27T13:52:42.828Z,23.20
2017-07-27T13:55:10.710Z,23.30
2017-07-27T13:57:38.253Z,23.40
2017-07-27T14:00:05.808Z,23.40
2017-07-27T14:02:33.510Z,23.30
2017-07-27T14:05:01.055Z,23.20
2017-07-27T14:07:28.601Z,23.20
2017-07-27T14:09:56.275Z,23.20
2017-07-27T14:12:23.824Z,23.20
2017-07-27T14:14:51.369Z,23.30
2017-07-27T14:17:19.135Z,23.30
2017-07-27T14:19:46.674Z,23.20
2017-07-27T14:22:14.211Z,23.00
2017-07-27T14:24:42.167Z,23.00
2017-07-27T14:27:09.707Z,22.90
2017-07-27T14:29:37.255Z,22.90
2017-07-27T14:32:04.843Z,22.90
2017-07-27T14:34:32.384Z,22.90
2017-07-27T14:36:59.925Z,23.00
2017-07-27T14:39:27.655Z,23.10
2017-07-27T14:41:55.198Z,23.00
2017-07-27T14:44:22.738Z,23.00
2017-07-27T14:46:50.434Z,23.00
2017-07-27T14:49:17.978Z,23.00
2017-07-27T14:51:45.588Z,22.80
2017-07-27T14:54:13.363Z,22.80
2017-07-27T14:56:40.950Z,22.60
2017-07-27T14:59:08.504Z,22.50
2017-07-27T15:01:36.091Z,22.50
2017-07-27T15:04:03.646Z,22.40
2017-07-27T15:06:31.208Z,22.20
2017-07-27T15:08:59.074Z,22.20
2017-07-27T15:11:26.632Z,22.10
2017-07-27T15:13:54.181Z,22.10
2017-07-27T15:16:21.770Z,22.10
2017-07-27T15:18:49.313Z,22.10
2017-07-27T15:21:16.863Z,22.00
2017-07-27T15:23:44.440Z,21.80
2017-07-27T15:26:11.987Z,21.70
2017-07-27T15:28:39.536Z,21.70
2017-07-27T15:31:07.142Z,21.70
2017-07-27T15:33:34.680Z,21.70
2017-07-27T15:36:02.239Z,21.60
2017-07-27T15:38:30.071Z,21.50
2017-07-27T15:40:57.625Z,21.40
2017-07-27T15:43:25.170Z,21.30
2017-07-27T15:45:52.891Z,21.20
2017-07-27T15:48:20.444Z,21.20
2017-07-27T15:50:47.990Z,21.20
2017-07-27T15:53:15.607Z,21.20
2017-07-27T15:55:43.218Z,21.20
2017-07-27T15:58:10.759Z,21.10
2017-07-27T16:00:38.495Z,21.10
2017-07-27T16:03:06.039Z,21.10
2017-07-27T16:05:33.582Z,21.20
2017-07-27T16:08:01.463Z,21.30
2017-07-27T16:10:29.018Z,21.50
2017-07-27T16:12:56.574Z,21.50
2017-07-27T16:15:24.167Z,21.50
2017-07-27T16:17:51.709Z,21.50
2017-07-27T16:20:19.262Z,21.50
2017-07-27T16:22:46.972Z,21.40
2017-07-27T16:25:14.526Z,21.30
2017-07-27T16:27:42.067Z,21.20
2017-07-27T16:30:09.787Z,21.00
2017-07-27T16:32:37.323Z,20.90
2017-07-27T16:35:04.869Z,20.80
2017-07-27T16:37:32.596Z,20.70
2017-07-27T16:40:00.145Z,20.60
2017-07-27T16:42:27.693Z,20.50
2017-07-27T16:44:55.275Z,20.50
2017-07-27T16:47:22.883Z,20.50
2017-07-27T16:49:50.453Z,20.50
2017-07-27T16:52:18.015Z,20.50
2017-07-27T16:54:45.554Z,20.40
2017-07-27T16:57:13.104Z,20.50
2017-07-27T16:59:40.735Z,20.50
2017-07-27T17:02:08.293Z,20.50
2017-07-27T17:04:35.838Z,20.50
2017-07-27T17:07:03.562Z,20.50
2017-07-27T17:09:31.118Z,20.40
2017-07-27T17:11:58.671Z,20.40
2017-07-27T17:14:26.280Z,20.40
2017-07-27T17:16:53.829Z,20.40
2017-07-27T17:19:21.378Z,20.40
2017-07-27T17:21:49.193Z,20.40
2017-07-27T17:24:16.803Z,20.40
2017-07-27T17:26:44.426Z,20.30
2017-07-27T17:29:12.028Z,20.20
2017-07-27T17:31:39.578Z,20.20
2017-07-27T17:34:07.130Z,20.10
2017-07-27T17:36:34.711Z,20.10
2017-07-27T17:39:02.265Z,20.10
2017-07-27T17:41:29.838Z,20.20
2017-07-27T17:43:57.543Z,20.10
2017-07-27T17:46:25.117Z,20.00
2017-07-27T17:48:52.688Z,20.00
2017-07-27T17:51:20.492Z,19.90
2017-07-27T17:53:48.038Z,19.90
2017-07-27T17:56:15.756Z,19.90
2017-07-27T17:58:43.376Z,20.00
2017-07-27T18:01:10.927Z,19.90
2017-07-27T18:03:38.471Z,19.90
2017-07-27T18:06:06.138Z,19.90
2017-07-27T18:08:33.707Z,19.80
2017-07-27T18:11:01.251Z,19.70
2017-07-27T18:13:30.063Z,19.80
2017-07-27T18:15:57.797Z,19.80
2017-07-27T18:18:26.040Z,19.80
2017-07-27T18:20:53.671Z,19.90
2017-07-27T18:23:21.267Z,19.90
2017-07-27T18:25:48.829Z,20.00
2017-07-27T18:28:16.845Z,19.80
2017-07-27T18:30:45.323Z,19.80
2017-07-27T18:33:13.006Z,19.70
2017-07-27T18:35:41.343Z,19.70
2017-07-27T18:38:09.024Z,19.70
2017-07-27T18:40:36.754Z,19.70
2017-07-27T18:43:04.479Z,19.70
2017-07-27T18:45:32.593Z,19.70
2017-07-27T18:48:01.393Z,19.70
2017-07-27T18:50:29.219Z,19.60
2017-07-27T18:52:56.881Z,19.60
2017-07-27T18:55:24.566Z,19.60
2017-07-27T18:57:52.180Z,19.50
2017-07-27T19:00:20.088Z,19.50
2017-07-27T19:02:47.691Z,19.50
2017-07-27T19:05:15.418Z,19.50
2017-07-27T19:07:42.966Z,19.40
2017-07-27T19:10:10.785Z,19.30
2017-07-27T19:12:39.369Z,19.30
2017-07-27T19:15:07.015Z,19.20
2017-07-27T19:17:34.997Z,19.20
2017-07-27T19:20:03.716Z,19.00
2017-07-27T19:22:31.322Z,18.90
2017-07-27T19:24:59.289Z,18.90
2017-07-27T19:27:27.244Z,18.80
2017-07-27T19:29:56.409Z,18.80
2017-07-27T19:32:24.480Z,18.70
2017-07-27T19:34:52.618Z,18.70
2017-07-27T19:37:20.243Z,18.60
2017-07-27T19:39:48.898Z,18.50
2017-07-27T19:42:17.018Z,18.40
2017-07-27T19:44:45.301Z,18.40
2017-07-27T19:47:12.871Z,18.30
2017-07-27T19:49:40.593Z,18.20
2017-07-27T19:52:08.156Z,18.20
2017-07-27T19:54:35.723Z,18.20
2017-07-27T19:57:03.568Z,18.30
2017-07-27T19:59:31.147Z,18.30
2017-07-27T20:01:58.725Z,18.30
2017-07-27T20:04:26.477Z,18.20
2017-07-27T20:06:54.056Z,18.30
2017-07-27T20:09:21.639Z,18.30
2017-07-27T20:11:49.543Z,18.30
2017-07-27T20:14:17.118Z,18.20
2017-07-27T20:16:44.702Z,18.00
2017-07-27T20:19:12.424Z,17.90
2017-07-27T20:21:39.996Z,18.00
2017-07-27T20:24:07.609Z,18.10
2017-07-27T20:26:35.344Z,18.10
2017-07-27T20:29:02.915Z,18.20
2017-07-27T20:31:31.403Z,18.10
2017-07-27T20:33:59.030Z,18.10
2017-07-27T20:36:26.578Z,18.10
2017-07-27T20:38:54.137Z,18.30
2017-07-27T20:41:25.719Z,18.30
2017-07-27T20:43:53.271Z,18.40
2017-07-27T20:46:21.224Z,18.40
2017-07-27T20:48:48.832Z,18.40
2017-07-27T20:51:16.395Z,18.50
2017-07-27T20:53:43.955Z,18.50
2017-07-27T20:56:11.696Z,18.40
2017-07-27T20:58:39.267Z,18.40
2017-07-27T21:01:06.830Z,18.30
2017-07-27T21:03:34.535Z,18.40
2017-07-27T21:06:02.095Z,18.50
2017-07-27T21:08:29.674Z,18.50
2017-07-27T21:10:57.395Z,18.50
2017-07-27T21:13:24.960Z,18.60
2017-07-27T21:15:52.534Z,18.50
2017-07-27T21:18:20.234Z,18.50
2017-07-27T21:20:47.794Z,18.60
2017-07-27T21:23:15.340Z,18.60
2017-07-27T21:25:43.080Z,18.50
2017-07-27T21:28:10.631Z,18.50
2017-07-27T21:30:38.194Z,18.40
2017-07-27T21:33:05.935Z,18.30
2017-07-27T21:35:33.492Z,18.20
2017-07-27T21:38:01.051Z,18.20
2017-07-27T21:40:28.624Z,18.30
2017-07-27T21:42:56.189Z,18.30
2017-07-27T21:45:23.735Z,18.10
2017-07-27T21:47:51.328Z,18.00
2017-07-27T21:50:18.885Z,18.00
2017-07-27T21:52:46.450Z,17.90
2017-07-27T21:55:14.075Z,17.80
2017-07-27T21:57:41.635Z,17.80
2017-07-27T22:00:09.179Z,17.80
2017-07-27T22:02:36.938Z,17.90
2017-07-27T22:05:04.497Z,17.90
2017-07-27T22:07:32.048Z,17.90
2017-07-27T22:09:59.817Z,17.90
2017-07-27T22:12:27.371Z,17.90
2017-07-27T22:14:54.923Z,17.80
2017-07-27T22:17:22.661Z,17.80
2017-07-27T22:19:50.247Z,17.80
2017-07-27T22:22:17.798Z,17.90
2017-07-27T22:24:45.650Z,17.90
2017-07-27T22:27:13.222Z,17.80
2017-07-27T22:29:40.772Z,17.80
2017-07-27T22:32:08.507Z,17.80
2017-07-27T22:34:36.071Z,17.90
2017-07-27T22:37:04.463Z,18.00
2017-07-27T22:39:32.175Z,18.10
2017-07-27T22:41:59.767Z,18.10
2017-07-27T22:44:27.355Z,18.00
2017-07-27T22:46:55.292Z,18.00
2017-07-27T22:49:22.854Z,18.10
2017-07-27T22:51:50.423Z,18.00
2017-07-27T22:54:18.014Z,18.00
2017-07-27T22:56:45.579Z,18.00
2017-07-27T22:59:13.138Z,18.00
2017-07-27T23:01:40.823Z,18.00
2017-07-27T23:04:08.387Z,18.00
2017-07-27T23:06:35.947Z,18.00
2017-07-27T23:09:03.851Z,18.00
2017-07-27T23:11:31.407Z,18.00
2017-07-27T23:13:58.979Z,17.90
2017-07-27T23:16:26.751Z,17.80
2017-07-27T23:18:54.333Z,17.70
2017-07-27T23:21:21.903Z,17.60
2017-07-27T23:23:49.531Z,17.60
2017-07-27T23:26:17.158Z,17.60
2017-07-27T23:28:44.704Z,17.50
2017-07-27T23:31:12.443Z,17.50
2017-07-27T23:33:40.003Z,17.50
2017-07-27T23:36:07.568Z,17.50
2017-07-27T23:38:35.294Z,17.40
2017-07-27T23:41:02.840Z,17.30
2017-07-27T23:43:30.394Z,17.40
2017-07-27T23:45:58.266Z,17.40
2017-07-27T23:48:25.810Z,17.40
2017-07-27T23:50:53.367Z,17.20
2017-07-27T23:53:20.974Z,17.20
2017-07-27T23:55:48.524Z,17.40
2017-07-27T23:58:16.086Z,17.50
